Tropical Cyclones
[Index]
Main Index Home Page Stock Weather Photos Extreme Storms Discussion Storm News and Storm Chasing Reports Tropical Cyclones / Hurricanes / Typhoons Weather Data and Links Wild Fires / Bushfires Weather Observation Techniques Weather Picture Catalogue Tornado Pictures and Reports Stock Video Footage and DVDs for sale
Season 1995-1996 Tropical Cyclone BARRY Track Map
Season 1995-1996 Summaries: [BoM-AU] [JTWC-AU] [JTWC-SIO] [JTWC-SPAC] [JTWC-SH]
<<- Previous TC | JTWC 1995-1996 Season | Next TC ->>

click for intensity scale information  Lat/long Grid: Show Hide

 Date Labels: Show Hide

Joint Typhoon Warning Centre Cyclone Data

Name: BARRY

02 Jan 1996 06:00 UTC to 09 Jan 1996 12:00 UTC

    date/time    lat    long     hPa   cat  kts
1996-01-02 06   15.0   132.9                  15          
1996-01-02 12   15.0   134.2                  15          
1996-01-02 18   15.1   135.7                  15          
1996-01-03 00   15.7   137.1                  20          
1996-01-03 06   15.7   138.2                  20          
1996-01-03 12   15.6   138.7                  20          
1996-01-03 18   15.5   138.9                  25          
1996-01-04 00   15.4   139.0                  30          
1996-01-04 06   15.3   139.1                  30          
1996-01-04 12   15.2   139.4                  35          
1996-01-04 18   15.3   139.8            1     40          
1996-01-05 00   15.7   140.4            2     55          
1996-01-05 06   16.1   140.9            3     80          
1996-01-05 12   16.7   141.2            3     80          
1996-01-05 18   16.9   141.3            3     75          
1996-01-06 00   17.0   141.3            2     70          
1996-01-06 06   17.2   141.5            2     65          
1996-01-06 12   17.3   141.9            2     60          
1996-01-06 18   17.5   142.2            2     55          
1996-01-07 00   17.9   142.5            1     45          
1996-01-07 06   18.4   142.7                  35          
1996-01-07 12   19.1   142.9                  25          
1996-01-07 18   19.9   143.5                  20          
1996-01-08 00   20.7   144.4                  20          
1996-01-08 06   21.3   145.3                  20          
1996-01-08 12   22.0   146.2                  20          
1996-01-08 18   22.8   147.2                  15          
1996-01-09 00   23.4   148.2                  15          
1996-01-09 06   24.1   149.1                  15          
1996-01-09 12   24.7   149.9                  15          
Winds are 1-min average.

Tropical cyclone tracks developed by Michael Bath using data from the Joint Typhoon Warning Centre Best Tracks and Google Maps.


[Australian Severe Weather index] [Copyright Notice] [Email Contacts] [Search This Site] [Privacy Policy]
Document: tropical_cyclone_barry.htm Updated: 18 September 2016